Time;durP1;ratioP1;P1;durP2;ratioP2;P2;SDS_P1;SDS_P2;PMS_P1;PMS_P2;Temp;Humidity;BMP_temperature;BMP_pressure;BME280_temperature;BME280_humidity;BME280_pressure;Samples;Min_cycle;Max_cycle;Signal;HPM_P1;HPM_P2
2021/12/27 00:00:18;;;;;;;7.93;4.57;;;;;;;8.48;53.64;99915.03;5022021;28;20509;-75
2021/12/27 00:02:53;;;;;;;6.53;3.92;;;;;;;8.49;53.39;99920.31;5027384;28;20045;-75
2021/12/27 00:05:20;;;;;;;7.30;4.78;;;;;;;8.48;53.58;99915.03;5026964;28;20049;-75
2021/12/27 00:07:51;;;;;;;7.82;4.68;;;;;;;8.51;53.64;99926.47;5028289;28;20041;-75
2021/12/27 00:10:19;;;;;;;6.68;4.00;;;;;;;8.51;53.66;99920.22;5029279;28;20124;-75
2021/12/27 00:12:45;;;;;;;6.03;3.80;;;;;;;8.51;53.71;99915.66;5027053;28;20049;-75
2021/12/27 00:15:13;;;;;;;6.38;3.97;;;;;;;8.53;53.64;99913.72;5028941;28;20045;-75
2021/12/27 00:17:41;;;;;;;6.28;4.13;;;;;;;8.54;53.87;99912.75;5027316;28;20065;-75
2021/12/27 00:20:11;;;;;;;7.22;4.15;;;;;;;8.54;53.62;99910.03;5029203;28;20053;-75
2021/12/27 00:22:38;;;;;;;7.40;4.90;;;;;;;8.53;53.78;99908.31;5027233;28;20088;-75
2021/12/27 00:25:05;;;;;;;7.65;4.40;;;;;;;8.55;53.54;99908.19;5029161;28;20072;-75
2021/12/27 00:27:32;;;;;;;7.90;4.32;;;;;;;8.55;53.64;99906.38;5028123;28;20042;-75
2021/12/27 00:29:59;;;;;;;6.47;4.35;;;;;;;8.55;53.79;99906.38;5028580;28;20045;-75
2021/12/27 00:32:25;;;;;;;6.63;4.25;;;;;;;8.56;53.99;99901.81;5027535;28;20092;-75
2021/12/27 00:34:52;;;;;;;7.68;4.55;;;;;;;8.56;53.90;99899.97;5028112;28;20038;-75
2021/12/27 00:37:19;;;;;;;6.88;4.55;;;;;;;8.56;54.07;99896.41;5027773;28;20409;-75
2021/12/27 00:39:46;;;;;;;7.30;4.32;;;;;;;8.56;53.66;99901.81;5018372;28;20421;-75
2021/12/27 00:42:12;;;;;;;7.30;4.22;;;;;;;8.56;53.87;99899.13;5027080;28;20060;-75
2021/12/27 00:44:39;;;;;;;7.05;4.43;;;;;;;8.56;53.78;99891.88;5029273;28;20509;-75
2021/12/27 00:47:06;;;;;;;6.78;4.35;;;;;;;8.56;53.94;99886.44;5027623;28;20444;-75
2021/12/27 00:49:32;;;;;;;8.02;4.38;;;;;;;8.57;53.95;99890.84;5028946;28;20053;-75
2021/12/27 00:51:59;;;;;;;6.65;3.97;;;;;;;8.58;53.96;99894.44;5028181;28;20045;-75
2021/12/27 00:54:26;;;;;;;7.45;4.50;;;;;;;8.58;54.08;99887.19;5027952;28;20107;-75
2021/12/27 00:56:52;;;;;;;7.82;4.32;;;;;;;8.59;54.08;99890.75;5028136;28;20256;-75
2021/12/27 00:59:19;;;;;;;5.80;3.67;;;;;;;8.60;54.08;99887.06;5028102;28;20049;-75
2021/12/27 01:01:45;;;;;;;6.40;4.47;;;;;;;8.61;53.83;99883.38;5027460;28;20073;-75
2021/12/27 01:04:12;;;;;;;6.10;3.92;;;;;;;8.60;54.01;99892.47;5028281;28;20061;-75
2021/12/27 01:06:40;;;;;;;6.50;4.18;;;;;;;8.61;54.12;99883.38;5027713;28;20057;-75
2021/12/27 01:09:07;;;;;;;6.78;3.97;;;;;;;8.61;54.04;99880.69;5027329;28;20133;-75
2021/12/27 01:11:57;;;;;;;6.07;3.78;;;;;;;8.62;54.34;99877.88;5014075;28;20049;-75
2021/12/27 01:14:39;;;;;;;6.05;3.85;;;;;;;8.62;54.04;99877.00;5027147;28;20680;-75
2021/12/27 01:17:06;;;;;;;6.55;4.10;;;;;;;8.60;54.05;99877.13;5027663;28;20134;-75
2021/12/27 01:19:33;;;;;;;6.18;3.90;;;;;;;8.63;53.97;99871.50;5027272;28;20128;-75
2021/12/27 01:22:00;;;;;;;7.45;4.20;;;;;;;8.64;53.95;99878.63;5027435;28;20053;-75
2021/12/27 01:24:27;;;;;;;6.72;4.20;;;;;;;8.65;53.93;99882.16;5029217;28;20543;-75
2021/12/27 01:26:53;;;;;;;7.85;4.75;;;;;;;8.65;54.09;99876.75;5032249;28;20041;-75
2021/12/27 01:29:20;;;;;;;6.75;4.50;;;;;;;8.63;54.48;99884.16;5031750;28;20049;-75
2021/12/27 01:31:46;;;;;;;6.93;4.22;;;;;;;8.62;54.16;99880.56;5029684;28;20041;-75
2021/12/27 01:34:13;;;;;;;7.47;3.97;;;;;;;8.61;54.19;99878.84;5032051;28;20073;-75
2021/12/27 01:36:40;;;;;;;7.10;4.65;;;;;;;8.60;54.19;99882.53;5032115;28;20488;-75
2021/12/27 01:39:07;;;;;;;7.88;4.32;;;;;;;8.58;54.15;99878.19;5031455;28;20068;-75
2021/12/27 01:41:33;;;;;;;7.00;4.40;;;;;;;8.58;54.37;99870.06;5046227;28;20586;-75
2021/12/27 01:44:00;;;;;;;7.47;4.75;;;;;;;8.58;54.38;99875.50;5032090;28;20489;-75
2021/12/27 01:46:29;;;;;;;5.90;4.07;;;;;;;8.58;54.10;99879.06;5031726;28;20045;-75
2021/12/27 01:48:57;;;;;;;6.90;4.15;;;;;;;8.58;54.58;99868.25;5032478;28;20455;-75
2021/12/27 01:51:26;;;;;;;6.75;4.43;;;;;;;8.58;54.36;99873.66;5031726;28;20063;-75
2021/12/27 01:53:54;;;;;;;6.65;4.20;;;;;;;8.57;54.41;99876.47;5040860;28;20560;-76
2021/12/27 01:56:22;;;;;;;6.90;4.50;;;;;;;8.55;54.46;99867.63;5031050;28;20485;-75
2021/12/27 01:58:53;;;;;;;7.38;4.47;;;;;;;8.57;54.70;99861.09;5031771;28;20113;-75
2021/12/27 02:01:20;;;;;;;7.40;4.57;;;;;;;8.56;54.54;99859.41;5030694;28;20065;-76
2021/12/27 02:03:50;;;;;;;5.88;3.90;;;;;;;8.58;54.66;99859.25;5030987;28;20060;-75
2021/12/27 02:06:17;;;;;;;7.43;4.10;;;;;;;8.56;54.70;99851.28;5029108;28;20095;-76
2021/12/27 02:08:44;;;;;;;7.13;4.30;;;;;;;8.57;54.46;99854.81;5031613;28;20053;-75
2021/12/27 02:11:14;;;;;;;6.07;3.97;;;;;;;8.58;54.59;99856.56;5030509;28;20041;-75
2021/12/27 02:13:44;;;;;;;7.90;4.55;;;;;;;8.57;54.69;99852.13;5031586;28;20125;-75
2021/12/27 02:16:14;;;;;;;6.50;4.25;;;;;;;8.59;54.79;99852.88;5030605;28;20045;-75
2021/12/27 02:18:44;;;;;;;6.40;3.95;;;;;;;8.58;54.38;99846.59;5031478;28;20045;-75
2021/12/27 02:21:11;;;;;;;6.47;4.18;;;;;;;8.61;54.63;99856.34;5033449;28;20119;-75
2021/12/27 02:23:40;;;;;;;6.00;3.88;;;;;;;8.62;54.59;99860.78;5031469;28;20041;-75
2021/12/27 02:26:07;;;;;;;7.45;4.30;;;;;;;8.63;54.68;99857.09;5030516;28;20077;-75
2021/12/27 02:28:34;;;;;;;7.25;4.40;;;;;;;8.63;54.77;99857.97;5012685;28;20103;-75
2021/12/27 02:31:01;;;;;;;6.32;4.13;;;;;;;8.64;54.40;99856.13;5030542;28;20091;-75
2021/12/27 02:33:27;;;;;;;7.90;4.28;;;;;;;8.65;54.95;99853.28;5030775;28;20056;-75
2021/12/27 02:35:56;;;;;;;6.95;4.07;;;;;;;8.67;54.68;99851.31;5029170;28;20324;-75
2021/12/27 02:38:27;;;;;;;6.57;4.03;;;;;;;8.68;54.95;99847.66;5018663;28;20120;-75
2021/12/27 02:40:55;;;;;;;6.10;4.25;;;;;;;8.68;54.80;99836.81;5030476;28;20464;-75
2021/12/27 02:43:25;;;;;;;9.32;4.68;;;;;;;8.70;54.75;99834.00;5030419;28;20484;-75
2021/12/27 02:45:55;;;;;;;6.80;4.65;;;;;;;8.71;54.70;99841.16;5030863;28;20136;-75
2021/12/27 02:48:26;;;;;;;6.57;4.03;;;;;;;8.70;55.09;99836.72;5030889;28;20053;-75
2021/12/27 02:50:54;;;;;;;6.25;3.97;;;;;;;8.71;54.81;99833.91;5029552;28;20089;-74
2021/12/27 02:53:22;;;;;;;7.40;4.32;;;;;;;8.72;54.78;99842.88;5026683;28;20500;-75
2021/12/27 02:55:51;;;;;;;7.40;4.75;;;;;;;8.71;54.93;99839.31;5030409;28;20061;-75
2021/12/27 02:58:19;;;;;;;7.13;4.15;;;;;;;8.72;54.71;99832.06;5030476;28;20427;-75
2021/12/27 03:00:50;;;;;;;6.75;4.15;;;;;;;8.74;55.14;99830.06;5025232;28;20550;-75
2021/12/27 03:03:17;;;;;;;5.22;3.50;;;;;;;8.73;55.11;99833.75;5029219;28;20073;-75
2021/12/27 03:05:45;;;;;;;7.05;4.05;;;;;;;8.75;55.13;99831.81;5029129;28;20077;-75
2021/12/27 03:08:15;;;;;;;6.32;4.40;;;;;;;8.75;55.09;99829.97;5032048;28;20111;-75
2021/12/27 03:10:44;;;;;;;5.63;3.92;;;;;;;8.75;54.77;99831.81;5038317;28;20123;-75
2021/12/27 03:13:17;;;;;;;6.90;4.18;;;;;;;8.76;55.34;99831.69;5029507;28;20456;-75
2021/12/27 03:15:45;;;;;;;6.40;4.20;;;;;;;8.73;55.03;99825.63;5030261;28;20107;-75
2021/12/27 03:18:12;;;;;;;6.68;4.43;;;;;;;8.74;54.91;99820.13;5029242;28;20136;-75
2021/12/27 03:20:39;;;;;;;5.93;4.15;;;;;;;8.73;55.05;99818.38;5030888;28;20084;-75
2021/12/27 03:23:06;;;;;;;6.18;3.90;;;;;;;8.73;55.14;99821.09;5044176;28;20712;-75
2021/12/27 03:25:33;;;;;;;6.35;4.05;;;;;;;8.73;55.07;99802.16;5030651;28;20111;-75
2021/12/27 03:27:59;;;;;;;6.03;3.53;;;;;;;8.74;55.15;99809.28;5029151;28;20084;-75
2021/12/27 03:30:27;;;;;;;6.35;3.92;;;;;;;8.75;55.10;99802.03;5030606;28;20088;-75
2021/12/27 03:32:54;;;;;;;6.00;3.83;;;;;;;8.76;55.16;99796.50;5027368;28;20096;-75
2021/12/27 03:35:34;;;;;;;7.35;4.70;;;;;;;8.76;55.29;99796.50;5030175;28;20480;-74
2021/12/27 03:38:04;;;;;;;6.35;4.22;;;;;;;8.77;55.37;99805.50;5028089;28;20073;-75
2021/12/27 03:40:31;;;;;;;5.65;3.50;;;;;;;8.79;55.01;99806.25;5030069;28;20081;-75
2021/12/27 03:42:58;;;;;;;7.13;4.30;;;;;;;8.78;55.28;99810.78;5028438;28;20137;-75
2021/12/27 03:45:32;;;;;;;6.15;4.00;;;;;;;8.81;55.15;99812.41;5029909;28;20061;-75
2021/12/27 03:47:59;;;;;;;;;;;;;;;8.61;55.97;99808.50;5024255;28;20048;-75
2021/12/27 03:50:26;;;;;;;7.95;3.85;;;;;;;8.78;55.07;99804.50;5030203;28;19925;-75
2021/12/27 03:52:55;;;;;;;7.50;4.05;;;;;;;8.83;55.36;99799.59;5025581;28;20108;-75
2021/12/27 03:55:23;;;;;;;7.05;3.95;;;;;;;8.83;55.24;99805.00;5029357;28;20564;-75
2021/12/27 03:57:55;;;;;;;6.13;3.90;;;;;;;8.83;55.00;99804.16;5028642;28;20501;-75
2021/12/27 04:02:57;;;;;;;7.27;3.97;;;;;;;8.85;55.18;99803.06;5027752;28;20551;-75
2021/12/27 04:05:24;;;;;;;5.78;3.72;;;;;;;8.86;55.07;99803.94;5030161;28;20081;-75
2021/12/27 04:08:00;;;;;;;6.75;3.92;;;;;;;8.87;55.21;99800.25;5027695;28;20140;-75
2021/12/27 04:10:27;;;;;;;6.40;3.90;;;;;;;8.87;55.26;99806.53;5042173;28;20085;-75
2021/12/27 04:12:57;;;;;;;5.60;3.78;;;;;;;8.90;55.54;99810.81;5027673;28;20057;-75
2021/12/27 04:15:25;;;;;;;7.35;4.15;;;;;;;8.90;55.21;99808.97;5021060;28;20064;-75
2021/12/27 04:17:52;;;;;;;6.25;3.97;;;;;;;8.90;55.30;99800.84;5021803;28;20140;-75
2021/12/27 04:20:20;;;;;;;6.47;3.97;;;;;;;8.92;55.20;99801.59;5022248;28;20103;-74
2021/12/27 04:22:48;;;;;;;6.38;3.97;;;;;;;8.93;55.45;99791.66;5028268;28;20049;-75
2021/12/27 04:25:17;;;;;;;6.32;4.18;;;;;;;8.95;55.23;99789.69;5027836;28;20041;-75
2021/12/27 04:27:44;;;;;;;6.03;4.18;;;;;;;8.96;55.25;99780.59;5028215;28;20050;-75
2021/12/27 04:30:11;;;;;;;5.82;3.88;;;;;;;8.96;55.40;99773.34;5029272;28;20077;-75
2021/12/27 04:32:38;;;;;;;5.72;3.63;;;;;;;8.97;55.21;99768.78;5028174;28;20046;-75
2021/12/27 04:35:05;;;;;;;6.18;4.20;;;;;;;8.99;55.08;99767.66;5028523;28;20080;-75
2021/12/27 04:37:32;;;;;;;6.57;4.10;;;;;;;8.98;55.15;99771.34;5042749;28;20045;-75
2021/12/27 04:39:59;;;;;;;6.22;4.03;;;;;;;8.99;55.16;99772.22;5028694;28;20081;-75
2021/12/27 04:42:29;;;;;;;5.85;3.70;;;;;;;8.99;55.33;99764.09;5027780;28;20069;-75
2021/12/27 04:44:55;;;;;;;6.13;3.92;;;;;;;8.99;55.23;99764.97;5024492;28;20104;-75
2021/12/27 04:47:23;;;;;;;6.00;3.83;;;;;;;9.00;55.40;99761.28;5028025;28;20076;-75
2021/12/27 04:49:50;;;;;;;6.90;4.00;;;;;;;9.00;55.16;99766.69;5029052;28;20084;-75
2021/12/27 04:52:17;;;;;;;6.57;4.07;;;;;;;9.01;55.40;99770.25;5027486;28;20180;-75
2021/12/27 04:54:44;;;;;;;7.32;4.40;;;;;;;9.02;55.42;99762.03;5028714;28;20075;-75
2021/12/27 04:57:10;;;;;;;5.15;3.60;;;;;;;9.03;55.44;99765.59;5027691;28;20136;-75
2021/12/27 04:59:37;;;;;;;6.78;4.47;;;;;;;9.04;55.28;99764.63;5027441;28;20188;-75
2021/12/27 05:02:04;;;;;;;6.57;3.83;;;;;;;9.04;55.41;99759.22;5026965;28;20050;-75
2021/12/27 05:04:31;;;;;;;6.75;4.03;;;;;;;9.05;55.40;99755.53;5027625;28;20056;-75
2021/12/27 05:06:58;;;;;;;5.95;3.88;;;;;;;9.05;55.42;99756.38;5028081;28;20463;-75
2021/12/27 05:09:25;;;;;;;5.57;3.60;;;;;;;9.05;55.57;99756.38;5026871;28;20065;-75
2021/12/27 05:11:51;;;;;;;6.55;3.67;;;;;;;9.06;55.49;99749.09;5026185;28;20732;-75
2021/12/27 05:14:19;;;;;;;6.25;3.88;;;;;;;9.10;55.36;99750.59;5028486;28;20049;-75
2021/12/27 05:16:45;;;;;;;7.13;4.00;;;;;;;9.08;55.52;99750.72;5027138;28;20077;-75
2021/12/27 05:19:12;;;;;;;6.95;4.38;;;;;;;9.10;55.58;99739.75;5028369;28;20041;-75
2021/12/27 05:21:39;;;;;;;6.60;3.97;;;;;;;9.10;55.40;99737.06;5027232;28;20045;-75
2021/12/27 05:24:06;;;;;;;6.13;3.95;;;;;;;9.11;55.51;99741.50;5034891;28;20054;-75
2021/12/27 05:26:33;;;;;;;5.38;3.63;;;;;;;9.11;55.60;99741.50;5028071;28;20049;-75
2021/12/27 05:29:00;;;;;;;5.68;3.60;;;;;;;9.12;55.50;99744.09;5028893;28;20490;-75
2021/12/27 05:31:30;;;;;;;5.50;3.78;;;;;;;9.13;55.65;99731.41;5010366;28;20053;-75
2021/12/27 05:33:56;;;;;;;5.65;3.60;;;;;;;9.15;55.50;99734.84;5028190;28;20123;-75
2021/12/27 05:36:23;;;;;;;5.88;3.80;;;;;;;9.14;55.45;99731.25;5028373;28;20382;-75
2021/12/27 05:38:50;;;;;;;5.57;3.90;;;;;;;9.16;55.63;99739.28;5027474;28;20492;-74
2021/12/27 05:41:16;;;;;;;7.20;4.18;;;;;;;9.17;55.56;99738.28;5027577;28;20081;-75
2021/12/27 05:43:43;;;;;;;6.32;3.72;;;;;;;9.18;55.19;99728.31;5018151;28;20075;-74
2021/12/27 05:46:10;;;;;;;6.63;4.10;;;;;;;9.18;55.74;99723.78;5028672;28;20045;-75
2021/12/27 05:48:37;;;;;;;5.57;3.35;;;;;;;9.19;55.54;99725.50;5027718;28;20056;-75
2021/12/27 05:51:03;;;;;;;6.45;3.83;;;;;;;9.20;55.76;99727.22;5027807;28;20041;-75
2021/12/27 05:53:30;;;;;;;5.97;3.75;;;;;;;9.21;55.60;99723.53;5026596;28;20050;-74
2021/12/27 05:55:56;;;;;;;4.95;3.40;;;;;;;9.22;55.48;99724.41;5027280;28;20092;-74
2021/12/27 05:58:23;;;;;;;5.75;4.15;;;;;;;9.23;55.29;99726.97;5027508;28;20373;-75
2021/12/27 06:00:50;;;;;;;5.38;3.53;;;;;;;9.23;55.46;99720.69;5027928;28;20053;-75
2021/12/27 06:03:17;;;;;;;5.38;3.13;;;;;;;9.24;55.55;99715.16;5025896;28;20144;-74
2021/12/27 06:05:46;;;;;;;6.93;3.90;;;;;;;9.25;55.38;99730.44;5027218;28;20452;-75
2021/12/27 06:08:13;;;;;;;4.85;3.33;;;;;;;9.26;55.53;99723.16;5027014;28;20435;-75
2021/12/27 06:10:39;;;;;;;5.80;3.90;;;;;;;9.25;55.71;99722.31;5027514;28;20042;-75
2021/12/27 06:13:06;;;;;;;5.80;3.60;;;;;;;9.27;55.58;99723.03;5031223;28;20504;-75
2021/12/27 06:15:32;;;;;;;6.20;3.83;;;;;;;9.28;55.65;99738.31;5031445;28;20088;-74
2021/12/27 06:17:59;;;;;;;6.47;3.92;;;;;;;9.29;55.55;99726.50;5030579;28;20141;-74
2021/12/27 06:20:26;;;;;;;6.25;3.88;;;;;;;9.30;55.47;99724.66;5031825;28;20041;-74
2021/12/27 06:22:56;;;;;;;6.30;3.53;;;;;;;9.33;55.62;99727.09;5030300;28;20531;-74
2021/12/27 06:25:26;;;;;;;6.25;3.65;;;;;;;9.34;55.84;99726.13;5031938;28;20310;-74
2021/12/27 06:27:53;;;;;;;5.70;3.75;;;;;;;9.33;55.51;99727.09;5024135;28;20058;-74
2021/12/27 06:30:20;;;;;;;5.88;3.78;;;;;;;9.33;55.80;99718.97;5031017;28;20060;-75
2021/12/27 06:32:48;;;;;;;5.32;3.30;;;;;;;9.33;55.70;99718.97;5029678;28;20197;-74
2021/12/27 06:35:17;;;;;;;5.38;3.33;;;;;;;9.35;55.54;99728.72;5031373;28;20496;-74
2021/12/27 06:37:45;;;;;;;5.70;3.58;;;;;;;9.35;55.64;99722.44;5029722;28;20435;-75
2021/12/27 06:40:14;;;;;;;6.80;3.83;;;;;;;9.36;55.71;99730.44;5029972;28;20502;-75
2021/12/27 06:42:42;;;;;;;5.88;3.60;;;;;;;9.36;55.46;99725.03;5030066;28;20099;-75
2021/12/27 06:45:09;;;;;;;5.78;3.67;;;;;;;9.38;55.52;99725.78;5030206;28;20042;-74
2021/12/27 06:47:36;;;;;;;5.63;3.47;;;;;;;9.39;55.46;99722.06;5044371;28;20045;-74
2021/12/27 06:50:04;;;;;;;5.53;3.88;;;;;;;9.41;55.63;99725.50;5030946;28;20103;-74
2021/12/27 06:52:30;;;;;;;6.20;3.88;;;;;;;9.40;55.57;99720.22;5029538;28;20077;-74
2021/12/27 06:54:57;;;;;;;6.20;4.20;;;;;;;9.41;55.68;99714.69;5031268;28;20542;-74
2021/12/27 06:57:29;;;;;;;5.93;3.75;;;;;;;9.41;55.68;99716.53;5030026;28;20100;-74
2021/12/27 06:59:56;;;;;;;6.22;3.53;;;;;;;9.40;55.73;99712.94;4994794;28;20057;-74
2021/12/27 07:02:24;;;;;;;6.15;4.15;;;;;;;9.41;55.43;99711.09;5027988;28;20063;-74
2021/12/27 07:04:51;;;;;;;5.55;3.70;;;;;;;9.40;55.51;99710.22;5031165;28;20049;-75
2021/12/27 07:07:22;;;;;;;5.43;3.58;;;;;;;9.42;55.78;99710.97;5028075;28;20041;-74
2021/12/27 07:09:49;;;;;;;4.57;3.15;;;;;;;9.42;55.71;99713.69;5030413;28;20060;-75
2021/12/27 07:12:16;;;;;;;5.70;3.38;;;;;;;9.43;55.75;99710.00;5028046;28;20076;-75
2021/12/27 07:14:43;;;;;;;6.70;3.58;;;;;;;9.45;55.68;99713.47;5013027;28;20128;-74
2021/12/27 07:17:09;;;;;;;5.70;3.40;;;;;;;9.46;55.40;99711.63;5011835;28;20100;-75
2021/12/27 07:19:36;;;;;;;5.93;3.80;;;;;;;9.46;55.69;99709.78;5013078;28;20461;-74
2021/12/27 07:22:03;;;;;;;5.80;3.47;;;;;;;9.49;55.59;99714.06;5029426;28;20192;-75
2021/12/27 07:24:29;;;;;;;6.82;4.22;;;;;;;9.48;55.70;99715.03;5029620;28;20108;-75
2021/12/27 07:26:56;;;;;;;6.78;3.90;;;;;;;9.49;55.75;99709.50;5029909;28;20049;-75
2021/12/27 07:29:23;;;;;;;5.32;3.40;;;;;;;9.49;55.67;99711.34;5029683;28;20136;-75
2021/12/27 07:31:50;;;;;;;5.63;3.50;;;;;;;9.50;55.54;99710.38;5029255;28;20381;-74
2021/12/27 07:34:19;;;;;;;6.22;3.72;;;;;;;9.51;55.65;99704.81;5044511;28;20072;-75
2021/12/27 07:36:47;;;;;;;5.53;3.47;;;;;;;9.52;55.79;99714.69;5029309;28;20048;-75
2021/12/27 07:39:14;;;;;;;5.82;3.38;;;;;;;9.53;55.78;99710.13;5031092;28;20042;-75
2021/12/27 07:41:42;;;;;;;5.93;3.70;;;;;;;9.53;55.80;99711.00;5024280;28;20053;-75
2021/12/27 07:44:09;;;;;;;6.53;3.92;;;;;;;9.55;55.73;99713.59;5028586;28;20123;-75
2021/12/27 07:46:40;;;;;;;6.10;4.03;;;;;;;9.54;55.77;99692.88;5030836;28;20386;-75
2021/12/27 07:49:08;;;;;;;6.93;4.40;;;;;;;9.55;55.62;99705.47;5029829;28;20048;-75
2021/12/27 07:51:35;;;;;;;6.18;3.80;;;;;;;9.54;55.85;99707.31;5026012;28;20084;-75
2021/12/27 07:54:03;;;;;;;6.53;4.20;;;;;;;9.53;55.68;99710.13;5028935;28;20084;-74
2021/12/27 07:56:29;;;;;;;5.82;3.50;;;;;;;9.54;55.93;99711.84;5028927;28;20041;-75
2021/12/27 07:58:56;;;;;;;6.88;4.10;;;;;;;9.52;55.72;99708.41;5026547;28;20042;-75
2021/12/27 08:01:23;;;;;;;5.60;3.88;;;;;;;9.53;56.02;99686.59;5036784;28;20223;-75
2021/12/27 08:03:50;;;;;;;6.40;3.95;;;;;;;9.52;55.95;99684.88;5029316;28;20045;-74
2021/12/27 08:06:16;;;;;;;5.78;3.60;;;;;;;9.52;55.79;99684.88;5028539;28;20069;-75
2021/12/27 08:08:43;;;;;;;6.20;3.60;;;;;;;9.50;55.83;99681.44;5028524;28;20528;-75
2021/12/27 08:11:09;;;;;;;5.75;3.70;;;;;;;9.51;55.65;99685.84;5022153;28;20042;-73
2021/12/27 08:13:37;;;;;;;5.90;3.67;;;;;;;9.50;56.02;99699.53;5029782;28;20041;-74
2021/12/27 08:16:04;;;;;;;5.63;3.47;;;;;;;9.50;55.71;99699.53;5027819;28;20046;-75
2021/12/27 08:18:31;;;;;;;6.10;3.38;;;;;;;9.50;55.76;99683.28;5029339;28;20455;-74
2021/12/27 08:20:58;;;;;;;6.07;3.83;;;;;;;9.49;56.08;99684.25;5026266;28;20069;-74
2021/12/27 08:23:24;;;;;;;5.72;3.45;;;;;;;9.49;55.68;99685.13;5027624;28;20463;-74
2021/12/27 08:25:51;;;;;;;5.78;3.58;;;;;;;9.51;55.75;99687.72;5028090;28;20060;-75
2021/12/27 08:28:17;;;;;;;6.13;3.65;;;;;;;9.52;55.74;99692.16;5028699;28;20049;-75
2021/12/27 08:30:44;;;;;;;6.03;3.55;;;;;;;9.51;55.71;99677.72;5017389;28;20046;-76
2021/12/27 08:33:11;;;;;;;5.40;3.53;;;;;;;9.51;55.78;99669.59;5026651;28;20115;-75
2021/12/27 08:35:40;;;;;;;5.55;3.72;;;;;;;9.52;55.87;99678.59;5027971;28;20045;-75
2021/12/27 08:38:07;;;;;;;6.20;4.03;;;;;;;9.51;56.01;99671.44;5029030;28;20454;-74
2021/12/27 08:40:34;;;;;;;4.72;3.28;;;;;;;9.51;55.81;99674.16;5028526;28;20052;-74
2021/12/27 08:43:08;;;;;;;5.72;3.90;;;;;;;9.54;56.17;99677.50;5026185;28;20042;-74
2021/12/27 08:45:34;;;;;;;4.90;2.97;;;;;;;9.49;55.81;99676.13;5028984;28;20049;-74
2021/12/27 08:48:01;;;;;;;5.78;3.53;;;;;;;9.51;55.73;99672.31;5021772;28;20062;-74
2021/12/27 08:50:28;;;;;;;4.65;3.08;;;;;;;9.52;55.86;99674.03;5023867;28;20127;-74
2021/12/27 08:52:57;;;;;;;6.03;3.72;;;;;;;9.53;56.12;99659.50;5027098;28;20056;-74
2021/12/27 08:55:25;;;;;;;6.03;3.30;;;;;;;9.54;56.21;99665.78;5028358;28;20063;-75
2021/12/27 08:57:52;;;;;;;5.30;3.25;;;;;;;9.58;56.17;99664.53;5021182;28;20079;-75
2021/12/27 09:00:22;;;;;;;6.13;3.92;;;;;;;9.58;56.02;99659.13;5029290;28;20095;-74
2021/12/27 09:02:48;;;;;;;6.82;3.72;;;;;;;9.60;56.00;99659.88;5029148;28;20053;-74
2021/12/27 09:05:15;;;;;;;6.45;3.92;;;;;;;9.62;56.36;99663.31;5030263;28;20053;-74
2021/12/27 09:07:42;;;;;;;6.55;3.63;;;;;;;9.62;56.20;99668.75;5020164;28;20041;-74
2021/12/27 09:10:10;;;;;;;6.28;3.83;;;;;;;9.65;56.06;99662.19;5027129;28;20053;-75
2021/12/27 09:12:38;;;;;;;5.03;3.60;;;;;;;9.67;55.95;99662.94;5029444;28;20050;-74
2021/12/27 09:15:09;;;;;;;6.53;4.03;;;;;;;9.68;56.13;99657.38;5028889;28;20129;-75
2021/12/27 09:17:37;;;;;;;5.45;3.58;;;;;;;9.69;56.40;99655.53;5027902;28;20400;-74
2021/12/27 09:20:05;;;;;;;6.15;3.90;;;;;;;9.72;56.43;99655.28;5028907;28;20049;-75
2021/12/27 09:22:32;;;;;;;5.35;3.13;;;;;;;9.73;56.46;99657.84;5027046;28;20460;-75
2021/12/27 09:24:58;;;;;;;6.32;3.75;;;;;;;9.76;56.42;99656.75;5025749;28;20054;-75
2021/12/27 09:27:25;;;;;;;7.15;4.13;;;;;;;9.77;56.46;99651.22;5022806;28;20124;-74
2021/12/27 09:29:55;;;;;;;5.60;3.58;;;;;;;9.81;56.55;99640.97;5027694;28;20049;-75
2021/12/27 09:32:27;;;;;;;5.80;3.72;;;;;;;9.80;56.57;99653.66;5021975;28;20072;-76
2021/12/27 09:34:54;;;;;;;5.60;3.55;;;;;;;9.83;56.43;99650.69;5027499;28;20615;-74
2021/12/27 09:37:21;;;;;;;6.03;3.85;;;;;;;9.85;56.33;99656.00;5025274;28;20042;-75
2021/12/27 09:39:53;;;;;;;6.00;3.88;;;;;;;9.86;56.31;99652.31;5024781;28;20080;-75
2021/12/27 09:42:24;;;;;;;6.65;4.05;;;;;;;9.88;56.47;99653.03;5026112;28;20341;-76
2021/12/27 09:44:53;;;;;;;5.57;3.72;;;;;;;9.89;56.47;99655.59;5017174;28;20483;-75
2021/12/27 09:47:21;;;;;;;5.55;3.55;;;;;;;9.88;56.60;99645.75;5028915;28;20095;-75
2021/12/27 09:50:05;;;;;;;6.97;4.07;;;;;;;9.91;56.79;99647.34;5030675;28;20115;-76
2021/12/27 09:52:32;;;;;;;5.95;3.67;;;;;;;9.91;56.21;99650.91;5030134;28;20045;-76
2021/12/27 09:55:03;;;;;;;5.38;3.25;;;;;;;9.95;56.63;99648.81;5030970;28;20059;-75
2021/12/27 09:57:33;;;;;;;4.85;3.25;;;;;;;9.95;56.63;99637.97;5018739;28;20045;-76
2021/12/27 10:00:00;;;;;;;5.45;3.28;;;;;;;9.99;56.61;99636.72;5031260;28;20055;-76
2021/12/27 10:02:29;;;;;;;5.47;3.40;;;;;;;10.01;56.65;99631.19;5030310;28;20069;-76
2021/12/27 10:04:56;;;;;;;5.22;3.10;;;;;;;10.04;56.71;99633.63;5031488;28;20056;-76
2021/12/27 10:07:24;;;;;;;4.75;2.85;;;;;;;10.08;56.76;99629.66;5032450;28;20124;-76
2021/12/27 10:09:59;;;;;;;5.95;3.38;;;;;;;10.10;56.73;99636.69;5031997;28;20056;-76
2021/12/27 10:12:27;;;;;;;5.22;3.30;;;;;;;10.12;56.69;99628.44;5030421;28;20052;-76
2021/12/27 10:14:59;;;;;;;5.88;3.85;;;;;;;10.18;57.04;99630.66;5032494;28;20319;-76
2021/12/27 10:17:29;;;;;;;5.82;3.70;;;;;;;10.18;56.65;99622.50;5030965;28;20045;-75
2021/12/27 10:20:16;;;;;;;6.15;3.83;;;;;;;10.22;57.24;99623.97;5032199;28;20053;-76
2021/12/27 10:22:47;;;;;;;5.43;3.72;;;;;;;10.23;56.97;99617.53;5029625;28;20091;-75
2021/12/27 10:25:22;;;;;;;4.68;3.03;;;;;;;10.24;56.56;99608.41;5029878;28;20064;-75
2021/12/27 10:27:53;;;;;;;5.50;2.95;;;;;;;10.27;56.82;99611.75;5030546;28;20107;-76
2021/12/27 10:30:23;;;;;;;7.07;3.78;;;;;;;10.30;56.99;99602.47;5032335;28;20309;-75
2021/12/27 10:33:12;;;;;;;5.78;3.53;;;;;;;10.32;57.06;99591.47;5030053;28;20049;-75
2021/12/27 10:35:40;;;;;;;5.78;3.33;;;;;;;10.32;56.76;99589.63;5031347;28;20053;-75
2021/12/27 10:38:24;;;;;;;5.47;3.17;;;;;;;10.39;57.09;99596.25;5028610;28;20053;-76
2021/12/27 10:40:57;;;;;;;;;;;;;;;10.16;57.55;99603.63;5027133;28;20413;-76
2021/12/27 10:43:46;;;;;;;5.38;3.13;;;;;;;10.39;57.21;99598.97;5030235;28;20407;-76
2021/12/27 10:46:33;;;;;;;5.72;3.47;;;;;;;10.39;56.84;99603.53;5021294;28;20049;-76
2021/12/27 10:49:00;;;;;;;5.93;3.28;;;;;;;10.43;57.16;99600.44;5031486;28;20782;-76
2021/12/27 10:51:31;;;;;;;6.30;3.63;;;;;;;10.48;56.90;99602.75;5026709;28;20053;-76
2021/12/27 10:54:00;;;;;;;5.40;3.28;;;;;;;10.50;56.88;99593.47;5030326;28;20053;-75
2021/12/27 10:56:51;;;;;;;5.45;3.22;;;;;;;10.53;57.28;99592.38;5030504;28;20068;-76
2021/12/27 10:59:20;;;;;;;5.32;3.20;;;;;;;10.54;57.01;99594.91;5030960;28;20037;-76
2021/12/27 11:01:48;;;;;;;6.10;3.30;;;;;;;10.57;57.27;99586.53;5013202;28;20049;-76
2021/12/27 11:04:17;;;;;;;5.47;3.50;;;;;;;10.60;56.58;99588.97;5014111;28;20088;-76
2021/12/27 11:06:45;;;;;;;5.43;3.20;;;;;;;10.62;56.94;99588.84;5030511;28;20041;-76
2021/12/27 11:09:14;;;;;;;4.88;3.28;;;;;;;10.64;56.91;99586.84;5029244;28;20083;-76
2021/12/27 11:11:42;;;;;;;5.20;3.25;;;;;;;10.67;56.70;99589.31;5030642;28;20069;-76
2021/12/27 11:14:09;;;;;;;5.72;3.03;;;;;;;10.69;56.53;99584.59;5030040;28;20057;-76
2021/12/27 11:16:35;;;;;;;4.88;3.03;;;;;;;10.71;56.89;99581.75;5030241;28;20087;-76
2021/12/27 11:19:02;;;;;;;5.88;3.40;;;;;;;10.73;56.78;99577.91;5029120;28;20045;-75
2021/12/27 11:21:33;;;;;;;5.57;3.20;;;;;;;10.77;57.04;99575.78;5030330;28;20072;-75
2021/12/27 11:24:01;;;;;;;5.63;3.13;;;;;;;10.78;56.77;99566.66;5029932;28;20493;-75
2021/12/27 11:26:33;;;;;;;6.15;3.30;;;;;;;10.79;56.86;99571.91;5029176;28;20440;-75
2021/12/27 11:29:12;;;;;;;4.28;3.05;;;;;;;10.82;57.30;99576.22;5029754;28;20542;-76
2021/12/27 11:31:39;;;;;;;5.70;3.55;;;;;;;10.84;56.98;99560.66;5028590;28;20045;-76
2021/12/27 11:34:09;;;;;;;5.50;3.22;;;;;;;10.85;56.89;99555.13;5029661;28;20136;-76
2021/12/27 11:36:42;;;;;;;5.90;3.35;;;;;;;10.86;57.32;99564.97;5030174;28;20042;-76
2021/12/27 11:39:21;;;;;;;4.32;2.95;;;;;;;10.88;57.42;99554.81;5030320;28;20091;-76
2021/12/27 11:42:05;;;;;;;4.80;2.85;;;;;;;10.89;57.12;99550.25;4992427;28;20088;-76
2021/12/27 11:44:54;;;;;;;4.82;2.88;;;;;;;10.92;57.44;99550.84;5024734;28;20073;-76
2021/12/27 11:47:27;;;;;;;4.85;3.00;;;;;;;10.92;57.25;99536.41;5030374;28;20107;-76
2021/12/27 11:49:53;;;;;;;6.03;3.20;;;;;;;10.91;57.23;99542.84;5030857;28;20477;-76